createdAt,value
2022-08-19T00:41:23.022Z,12.20
2022-08-19T00:46:34.850Z,11.73
2022-08-19T00:51:41.390Z,13.03
2022-08-19T00:56:50.346Z,13.63
2022-08-19T01:02:01.044Z,14.27
2022-08-19T01:07:09.540Z,14.80
2022-08-19T01:35:43.249Z,15.00
2022-08-19T01:40:56.956Z,15.70
2022-08-19T01:46:02.950Z,16.37
2022-08-19T01:51:22.287Z,16.17
2022-08-19T01:56:45.410Z,17.87
2022-08-19T04:08:29.788Z,22.00
2022-08-19T06:59:11.291Z,18.43
2022-08-19T07:04:18.786Z,16.57
2022-08-19T07:09:26.460Z,17.13
2022-08-19T07:14:36.877Z,16.47
2022-08-19T07:19:44.469Z,18.10
2022-08-19T07:24:51.076Z,18.33
2022-08-19T07:30:05.745Z,17.57
2022-08-19T07:35:20.886Z,18.27
2022-08-19T07:51:36.898Z,19.87
2022-08-19T07:56:53.867Z,19.23
2022-08-19T08:02:04.070Z,19.07
2022-08-19T08:13:08.547Z,19.93
2022-08-19T08:34:55.104Z,19.33
2022-08-19T08:40:12.963Z,17.07
2022-08-19T08:45:25.308Z,18.80
2022-08-19T08:50:47.801Z,18.83
2022-08-19T08:55:57.810Z,17.53
2022-08-19T09:01:11.302Z,16.80
2022-08-19T09:06:32.314Z,17.93
2022-08-19T09:17:33.362Z,18.60
2022-08-19T09:22:54.800Z,17.93
2022-08-19T10:13:27.538Z,12.30
2022-08-19T10:18:49.612Z,11.97
2022-08-19T10:24:00.101Z,14.70
2022-08-19T10:29:14.666Z,12.53
2022-08-19T10:46:05.415Z,11.63
2022-08-19T12:22:39.526Z,16.37
2022-08-19T12:27:57.298Z,17.27
2022-08-19T12:33:10.204Z,18.77
2022-08-19T12:38:30.194Z,18.30
2022-08-19T12:43:40.467Z,24.00
2022-08-19T12:48:56.108Z,25.43
2022-08-19T13:16:17.260Z,22.73
2022-08-19T13:50:02.280Z,24.70
2022-08-19T14:39:54.779Z,23.80
2022-08-19T14:45:30.743Z,24.67
2022-08-19T14:50:59.704Z,24.90
2022-08-19T15:07:50.359Z,30.50
2022-08-19T15:18:41.264Z,31.03
2022-08-19T15:29:44.814Z,28.90
2022-08-19T17:06:59.837Z,28.57
2022-08-19T17:12:09.652Z,26.33
2022-08-19T17:44:59.761Z,26.97
2022-08-19T17:50:14.294Z,25.50
2022-08-19T17:55:33.554Z,25.73
2022-08-19T18:00:53.354Z,24.37
2022-08-19T18:06:09.689Z,24.23
2022-08-19T18:11:18.430Z,25.93
2022-08-19T18:16:32.962Z,25.30
2022-08-19T18:21:42.908Z,26.43
2022-08-19T18:32:25.444Z,24.80
2022-08-19T18:37:46.487Z,23.23
2022-08-19T18:43:11.013Z,24.37
2022-08-19T18:48:39.166Z,23.00
2022-08-19T18:53:57.096Z,22.43
2022-08-19T18:59:08.425Z,22.97
2022-08-19T19:04:19.515Z,23.70
2022-08-19T19:09:35.489Z,23.07
2022-08-19T19:14:49.427Z,23.87
2022-08-19T19:20:05.400Z,22.80
2022-08-19T19:25:16.290Z,22.80
2022-08-19T19:30:25.211Z,23.03
2022-08-19T19:41:25.111Z,21.33
2022-08-19T19:57:50.961Z,23.30
2022-08-19T20:02:59.828Z,24.37
2022-08-19T20:08:20.110Z,25.67
2022-08-19T20:13:33.098Z,25.37
2022-08-19T20:18:40.747Z,26.43
2022-08-19T20:24:09.712Z,27.50
2022-08-19T20:29:39.424Z,26.93
2022-08-19T20:34:49.646Z,28.10
2022-08-19T20:39:55.240Z,32.80
2022-08-19T20:45:08.697Z,28.77
2022-08-19T20:50:32.697Z,28.93
2022-08-19T20:55:38.878Z,29.60
2022-08-19T21:00:48.668Z,30.53
2022-08-19T21:05:54.219Z,30.03
2022-08-19T21:11:01.068Z,31.43
2022-08-19T21:16:09.801Z,30.57
2022-08-19T21:21:16.187Z,31.27
2022-08-19T21:26:23.050Z,33.10
2022-08-19T21:31:31.526Z,32.57
2022-08-19T21:36:38.350Z,31.07
2022-08-19T21:41:43.942Z,31.97
2022-08-19T21:46:51.792Z,32.67
2022-08-19T21:51:57.456Z,30.80
2022-08-19T21:57:03.740Z,30.50
2022-08-19T22:02:20.775Z,31.67
2022-08-19T22:07:29.331Z,31.07
2022-08-19T22:12:38.406Z,29.33
2022-08-19T22:17:55.393Z,28.73
2022-08-19T22:23:05.683Z,29.07
2022-08-19T22:28:18.895Z,27.23
2022-08-19T22:33:33.927Z,28.13
2022-08-19T22:38:39.754Z,26.83
2022-08-19T22:49:28.096Z,28.20
2022-08-19T22:54:34.282Z,27.23
2022-08-19T22:59:41.172Z,27.13
2022-08-19T23:04:50.185Z,27.17
2022-08-19T23:10:03.502Z,25.87
2022-08-19T23:15:13.030Z,27.50
2022-08-19T23:20:23.437Z,27.23
2022-08-19T23:25:32.495Z,26.97
2022-08-19T23:30:43.972Z,27.67
2022-08-19T23:35:52.322Z,26.07
2022-08-19T23:41:01.377Z,26.10
2022-08-19T23:46:11.623Z,25.97
2022-08-19T23:51:22.917Z,26.70
2022-08-19T23:56:28.348Z,28.57
